Latest Weather Observations for Bellambi

IDN60901

Issued at 5:51 am EST Thursday 19 September 2019 (issued every 10 minutes, with the page automatically refreshed every 10 minutes)

About weather observations | Map of Sydney area stations | Latest observations for Sydney area | Other Formats
Station Details ID: 068228 Name: BELLAMBI AWS Lat: -34.37 Lon: 150.93 Height: 10.0 m
Data from the previous 72 hours. | See also: Recent months at Bellambi
Date/Time
EST
Temp
°C
App
Temp
°C
Dew
Point
°C
Rel
Hum
%
Delta-T
°C
Wind Press
QNH
hPa
Press
MSL
hPa
Rain since
9am
mm
Dir  Spd
km/h
Gust
km/h
Spd
kts
Gust
kts
19/05:30am 14.4 13.1 13.6 95 0.4 S 13 22 7 12 - - 43.0
19/05:00am 14.1 13.0 13.1 94 0.6 SW 11 15 6 8 - - 41.6
19/04:59am 14.1 13.0 13.1 94 0.6 SW 11 15 6 8 - - 41.4
19/04:30am 14.4 12.6 13.4 94 0.6 SSW 15 19 8 10 - - 41.2
19/04:25am 14.3 12.5 13.3 94 0.6 SSW 15 19 8 10 - - 41.2
19/04:00am 14.3 13.3 13.3 94 0.6 S 11 17 6 9 - - 41.2
19/03:44am 14.1 13.7 13.1 94 0.6 S 7 9 4 5 - - 41.2
19/03:30am 14.1 12.6 13.1 94 0.6 SSW 13 17 7 9 - - 41.2
19/03:00am 14.4 13.0 13.4 94 0.6 S 13 17 7 9 - - 41.2
19/02:30am 14.6 13.3 13.6 94 0.6 S 13 17 7 9 - - 41.2
19/02:08am 14.3 13.6 13.3 94 0.6 SW 9 15 5 8 - - 41.2
19/02:00am 14.3 13.6 13.3 94 0.6 SSW 9 15 5 8 - - 40.4
19/01:30am 14.0 12.5 13.1 94 0.5 SW 13 19 7 10 - - 39.2
19/01:00am 13.8 12.2 12.9 94 0.5 SW 13 17 7 9 - - 39.2
19/12:30am 13.9 12.0 13.0 94 0.5 SSW 15 17 8 9 - - 39.2
19/12:00am 13.6 11.6 12.7 94 0.5 SW 15 19 8 10 - - 39.2
 
Date/Time
EST
Temp
°C
App
Temp
°C
Dew
Point
°C
Rel
Hum
%
Delta-T
°C
Wind Press
QNH
hPa
Press
MSL
hPa
Rain since
9am
mm
Dir  Spd
km/h
Gust
km/h
Spd
kts
Gust
kts
18/11:30pm 13.5 11.1 12.6 94 0.5 SW 17 24 9 13 - - 39.2
18/11:00pm 13.8 11.1 13.0 95 0.4 SSW 19 24 10 13 - - 39.2
18/10:30pm 13.6 11.2 12.8 95 0.4 SSW 17 22 9 12 - - 39.0
18/10:00pm 13.5 10.7 12.7 95 0.4 SW 19 24 10 13 - - 39.0
18/09:30pm 13.4 10.4 12.6 95 0.4 SW 20 26 11 14 - - 39.0
18/09:00pm 13.1 10.1 12.5 96 0.3 SW 20 28 11 15 - - 39.0
18/08:58pm 13.2 10.2 12.6 96 0.3 SW 20 28 11 15 - - 39.0
18/08:49pm 13.0 10.1 12.4 96 0.3 SW 19 24 10 13 - - 38.8
18/08:30pm 13.1 9.7 12.5 96 0.3 SW 22 30 12 16 - - 38.4
18/08:00pm 12.9 9.8 12.3 96 0.3 SW 20 28 11 15 - - 38.2
18/07:53pm 13.0 10.0 12.4 96 0.3 SW 20 28 11 15 - - 37.4
18/07:39pm 12.9 10.0 12.3 96 0.3 SW 19 26 10 14 - - 37.2
18/07:30pm 12.8 9.3 12.2 96 0.3 SW 22 28 12 15 - - 37.0
18/07:06pm 12.9 10.0 12.3 96 0.3 SW 19 24 10 13 - - 34.0
18/07:00pm 12.9 10.0 12.3 96 0.3 SW 19 24 10 13 - - 33.8
18/06:32pm 13.0 9.2 12.4 96 0.3 SW 24 32 13 17 - - 33.4
18/06:30pm 13.0 9.2 12.4 96 0.3 SW 24 33 13 18 - - 33.4
18/06:22pm 13.0 10.5 12.4 96 0.3 SW 17 33 9 18 - - 33.2
18/06:06pm 13.2 10.2 12.6 96 0.3 SW 20 28 11 15 - - 33.2
18/06:00pm 13.0 9.6 12.4 96 0.3 SW 22 30 12 16 - - 33.2
18/05:57pm 13.0 9.2 12.4 96 0.3 SW 24 33 13 18 - - 33.2
18/05:30pm 13.1 10.3 12.5 96 0.3 SW 19 26 10 14 - - 29.4
18/05:05pm 13.2 9.8 12.6 96 0.3 SW 22 32 12 17 - - 29.4
18/05:00pm 13.3 10.5 12.7 96 0.3 SW 19 32 10 17 - - 28.8
18/04:56pm 13.2 10.8 12.6 96 0.3 SW 17 28 9 15 - - 28.4
18/04:37pm 13.7 9.8 13.2 97 0.3 SW 26 33 14 18 - - 26.8
18/04:30pm 13.8 9.5 13.3 97 0.3 SSW 28 33 15 18 - - 25.6
18/04:19pm 14.0 8.8 13.5 97 0.3 SSW 33 43 18 23 - - 24.8
18/04:00pm 14.0 8.8 13.5 97 0.3 SSW 33 43 18 23 - - 24.4
18/03:56pm 14.0 8.8 13.5 97 0.3 SSW 33 44 18 24 - - 24.2
18/03:39pm 14.3 8.9 13.8 97 0.3 SSW 35 43 19 23 - - 22.4
18/03:30pm 14.6 9.3 14.1 97 0.3 S 35 46 19 25 - - 21.0
18/03:27pm 14.4 8.6 13.9 97 0.3 S 37 46 20 25 - - 21.0
18/03:00pm 14.0 7.7 13.4 96 0.3 SSW 39 50 21 27 - - 19.2
18/02:58pm 14.0 7.7 13.4 96 0.3 SSW 39 50 21 27 - - 19.0
18/02:41pm 14.1 7.8 13.5 96 0.3 SSW 39 46 21 25 - - 17.0
18/02:30pm 14.1 7.8 13.5 96 0.3 SSW 39 48 21 26 - - 16.2
18/02:13pm 14.1 6.8 13.5 96 0.3 SSW 44 52 24 28 - - 15.0
18/02:00pm 14.0 6.9 13.4 96 0.3 S 43 50 23 27 - - 14.2
18/01:59pm 14.0 6.9 13.4 96 0.3 S 43 50 23 27 - - 14.2
18/01:44pm 14.0 6.9 13.4 96 0.3 S 43 50 23 27 - - 13.0
18/01:30pm 14.0 6.9 13.4 96 0.3 S 43 52 23 28 - - 12.0
18/01:25pm 13.9 6.8 13.3 96 0.3 S 43 52 23 28 - - 11.8
18/01:15pm 14.0 7.3 13.4 96 0.3 S 41 48 22 26 - - 11.6
18/01:00pm 13.9 6.8 13.3 96 0.3 S 43 52 23 28 - - 11.0
18/12:58pm 13.9 6.8 13.3 96 0.3 S 43 52 23 28 - - 11.0
18/12:30pm 13.7 6.8 12.9 95 0.4 S 41 48 22 26 - - 9.4
18/12:27pm 13.7 6.8 12.9 95 0.4 S 41 48 22 26 - - 9.2
18/12:00pm 13.6 8.2 12.8 95 0.4 S 33 44 18 24 - - 7.2
18/11:30am 12.6 8.6 11.7 94 0.5 SSW 24 33 13 18 - - 5.0
18/11:00am 12.3 7.7 11.2 93 0.6 SW 26 35 14 19 - - 3.6
18/10:51am 12.3 7.7 11.2 93 0.6 SW 26 35 14 19 - - 3.0
18/10:30am 12.1 7.5 11.0 93 0.6 SW 26 33 14 18 - - 2.0
18/10:00am 11.9 7.6 10.8 93 0.6 SW 24 37 13 20 - - 1.8
18/09:30am 12.0 8.1 10.7 92 0.7 SW 22 30 12 16 - - 0.2
18/09:00am 11.9 7.6 10.8 93 0.6 SSW 24 32 13 17 - - 26.8
18/08:30am 11.3 7.2 10.2 93 0.6 SW 22 33 12 18 - - 26.8
18/08:00am 11.3 6.8 10.0 92 0.7 SW 24 35 13 19 - - 26.2
18/07:30am 12.9 7.1 11.5 91 0.7 S 33 46 18 25 - - 25.6
18/07:17am 13.0 8.3 12.1 94 0.5 S 28 46 15 25 - - 25.4
18/07:00am 11.7 7.4 10.6 93 0.6 SSW 24 33 13 18 - - 25.0
18/06:30am 11.1 7.0 10.0 93 0.6 SSW 22 30 12 16 - - 25.0
18/06:03am 11.1 7.4 10.2 94 0.5 SSW 20 32 11 17 - - 24.8
18/06:00am 10.9 6.8 10.0 94 0.5 SW 22 32 12 17 - - 24.8
18/05:34am 10.8 6.6 9.7 93 0.6 SSW 22 33 12 18 - - 24.0
18/05:30am 11.0 7.2 9.9 93 0.6 SSW 20 32 11 17 - - 23.6
18/05:00am 10.9 5.9 9.7 92 0.6 SW 26 35 14 19 - - 22.0
18/04:30am 10.8 5.8 9.6 92 0.6 SW 26 37 14 20 - - 21.6
18/04:00am 11.2 6.3 9.8 91 0.7 SW 26 35 14 19 - - 21.6
18/03:30am 11.7 6.1 10.1 90 0.8 SSW 30 39 16 21 - - 21.6
18/03:03am 12.2 4.8 9.8 85 1.2 S 39 50 21 27 - - 21.4
18/03:00am 13.6 6.3 11.5 87 1.1 S 41 50 22 27 - - 21.4
18/02:30am 13.4 4.6 10.8 84 1.4 SSE 48 63 26 34 - - 20.8
18/02:00am 13.4 4.9 10.8 84 1.4 SSE 46 57 25 31 - - 20.6
18/01:38am 14.8 6.1 10.0 73 2.5 SSE 46 65 25 35 - - 20.2
18/01:30am 14.8 6.8 10.4 75 2.3 S 43 57 23 31 - - 20.2
18/01:01am 14.7 5.8 9.3 70 2.8 S 46 67 25 36 - - 20.2
18/01:00am 14.9 6.1 9.7 71 2.7 S 46 59 25 32 - - 20.2
18/12:30am 14.7 5.3 8.9 68 2.9 S 48 59 26 32 - - 20.2
18/12:00am 14.8 5.8 8.7 67 3.1 S 46 59 25 32 - - 20.2
 
Date/Time
EST
Temp
°C
App
Temp
°C
Dew
Point
°C
Rel
Hum
%
Delta-T
°C
Wind Press
QNH
hPa
Press
MSL
hPa
Rain since
9am
mm
Dir  Spd
km/h
Gust
km/h
Spd
kts
Gust
kts
17/11:30pm 15.0 6.4 8.9 67 3.1 S 44 56 24 30 - - 20.2
17/11:00pm 14.9 6.9 9.1 68 3.0 S 41 50 22 27 - - 20.2
17/10:30pm 14.9 6.4 9.1 68 3.0 SSE 44 54 24 29 - - 20.2
17/10:00pm 14.7 5.9 8.2 65 3.3 SSE 44 54 24 29 - - 20.2
17/09:30pm 14.8 6.1 8.3 65 3.3 SSE 44 54 24 29 - - 20.2
17/09:00pm 14.8 5.7 8.3 65 3.3 SSE 46 56 25 30 - - 20.2
17/08:30pm 14.7 5.3 8.6 67 3.1 SSE 48 57 26 31 - - 20.2
17/08:00pm 14.7 4.8 8.4 66 3.2 SSE 50 59 27 32 - - 20.2
17/07:30pm 14.6 4.8 8.8 68 2.9 SE 50 63 27 34 - - 20.2
17/07:00pm 14.5 4.7 8.5 67 3.0 SE 50 59 27 32 - - 20.2
17/06:30pm 14.4 3.9 9.0 70 2.7 SE 54 65 29 35 - - 20.2
17/06:00pm 14.3 4.6 10.3 77 2.1 SE 52 61 28 33 - - 20.2
17/05:30pm 14.2 4.0 10.0 76 2.2 SE 54 65 29 35 - - 20.2
17/05:00pm 14.0 4.1 11.0 82 1.6 SSE 54 65 29 35 - - 20.0
17/04:30pm 13.5 5.9 11.7 89 1.0 SSE 43 54 23 29 - - 19.2
17/04:00pm 13.0 4.4 11.7 92 0.7 SSE 48 56 26 30 - - 17.4
17/03:30pm 12.8 5.2 11.9 94 0.5 SSE 43 54 23 29 - - 16.0
17/03:26pm 12.8 6.0 11.9 94 0.5 SSE 39 48 21 26 - - 15.6
17/03:10pm 12.9 5.1 11.8 93 0.6 SSE 44 54 24 29 - - 14.0
17/03:00pm 12.9 5.6 11.6 92 0.7 SSE 41 52 22 28 - - 13.2
17/02:30pm 13.3 7.5 11.5 89 1.0 SSE 33 44 18 24 - - 11.4
17/02:00pm 13.5 6.2 11.6 88 1.0 SE 41 48 22 26 - - 10.2
17/01:30pm 13.1 5.3 11.3 89 1.0 SE 43 50 23 27 - - 9.6
17/01:00pm 13.2 6.4 11.9 92 0.7 SE 39 46 21 25 - - 9.6
17/12:32pm 12.8 6.4 12.0 95 0.4 SE 37 52 20 28 - - 8.0
17/12:30pm 12.9 7.3 12.1 95 0.4 SSE 33 46 18 25 - - 8.0
17/12:00pm 10.5 6.6 9.4 93 0.5 SW 20 32 11 17 - - 5.6
17/11:30am 10.8 6.6 9.7 93 0.6 SW 22 32 12 17 - - 1.8
17/11:24am 11.0 6.5 9.9 93 0.6 SSW 24 32 13 17 - - 1.6
17/11:00am 10.6 7.3 9.4 92 0.6 SW 17 26 9 14 - - 0.8
17/10:30am 10.3 6.3 9.1 92 0.6 SW 20 28 11 15 - - 0.8
17/10:00am 9.8 5.7 8.6 92 0.6 SW 20 28 11 15 - - 0.6
17/09:30am 9.3 5.3 8.1 92 0.6 SW 19 24 10 13 - - 0.4
17/09:00am 9.0 4.7 7.8 92 0.6 SW 20 30 11 16 - - 29.2
17/08:30am 8.8 4.4 7.6 92 0.6 SW 20 32 11 17 - - 29.0
17/08:00am 8.5 4.1 7.3 92 0.6 SW 20 28 11 15 - - 27.8
17/07:30am 8.2 3.7 7.0 92 0.6 SW 20 28 11 15 - - 26.2
17/07:00am 8.1 3.6 6.9 92 0.6 SW 20 28 11 15 - - 24.4
17/06:30am 7.9 3.3 6.7 92 0.6 SW 20 24 11 13 - - 21.8
17/06:00am 7.9 2.6 6.7 92 0.6 SW 24 35 13 19 - - 18.4
17/05:30am 7.6 1.8 6.4 92 0.5 SW 26 35 14 19 - - 14.8
17/05:00am 7.5 2.4 6.1 91 0.6 SW 22 30 12 16 - - 12.2
17/04:30am 7.6 2.5 6.2 91 0.6 SW 22 32 12 17 - - 9.8
17/04:00am 7.6 2.9 6.2 91 0.6 SW 20 28 11 15 - - 9.0
17/03:30am 7.6 2.9 6.2 91 0.6 SW 20 30 11 16 - - 8.6
17/03:00am 7.7 2.7 6.3 91 0.6 SW 22 30 12 16 - - 8.4
17/02:30am 7.8 2.4 6.4 91 0.6 SW 24 32 13 17 - - 7.8
17/02:00am 7.9 2.1 6.4 90 0.7 SW 26 39 14 21 - - 7.2
17/01:30am 8.0 3.4 6.5 90 0.7 SW 20 28 11 15 - - 6.6
17/01:00am 8.3 3.0 6.8 90 0.7 SW 24 33 13 18 - - 6.2
17/12:30am 8.6 3.4 7.1 90 0.7 SW 24 33 13 18 - - 6.2
17/12:19am 9.0 2.2 7.5 90 0.7 SSW 33 46 18 25 - - 6.0
17/12:00am 9.7 2.0 8.5 92 0.6 SSW 39 50 21 27 - - 5.8
 
Date/Time
EST
Temp
°C
App
Temp
°C
Dew
Point
°C
Rel
Hum
%
Delta-T
°C
Wind Press
QNH
hPa
Press
MSL
hPa
Rain since
9am
mm
Dir  Spd
km/h
Gust
km/h
Spd
kts
Gust
kts
16/11:55pm 9.8 2.5 8.6 92 0.6 SSW 37 48 20 26 - - 5.6
16/11:30pm 10.3 2.4 9.2 93 0.5 SSW 41 50 22 27 - - 5.2
16/11:28pm 10.1 2.1 8.9 92 0.6 SSW 41 50 22 27 - - 5.0
16/11:00pm 10.3 4.8 9.2 93 0.5 SSW 28 37 15 20 - - 4.2
16/10:30pm 10.9 3.1 9.8 93 0.6 SSW 41 56 22 30 - - 3.6
16/10:07pm 11.5 3.3 10.4 93 0.6 S 44 52 24 28 - - 2.6
16/10:00pm 11.5 3.8 10.2 92 0.7 S 41 52 22 28 - - 2.4
16/09:30pm 11.9 5.1 10.6 92 0.7 SSE 37 46 20 25 - - 2.0
16/09:29pm 11.9 5.1 10.6 92 0.7 SSE 37 46 20 25 - - 2.0
16/09:00pm 11.9 5.1 10.6 92 0.7 SSW 37 50 20 27 - - 1.4
16/08:30pm 12.6 5.5 10.8 89 0.9 SSW 39 46 21 25 - - 0.0
16/08:16pm 13.1 5.6 11.0 87 1.1 SSW 41 54 22 29 - - 0.0
16/08:00pm 13.6 5.4 10.4 81 1.7 S 44 56 24 30 - - 0.0
16/07:30pm 14.0 6.8 10.4 79 1.9 S 39 46 21 25 - - 0.0
16/07:00pm 14.4 7.4 11.4 82 1.6 S 39 48 21 26 - - 0.0
16/06:30pm 14.5 7.5 11.3 81 1.7 SSW 39 48 21 26 - - 0.0
16/06:00pm 14.4 6.0 11.0 80 1.8 S 46 54 25 29 - - 0.0
16/05:30pm 15.2 7.7 11.0 76 2.2 S 41 48 22 26 - - 0.0
16/05:00pm 15.2 8.5 11.0 76 2.2 S 37 46 20 25 - - 0.0
16/04:30pm 15.3 7.9 11.1 76 2.2 S 41 50 22 27 - - 0.0
16/04:00pm 15.3 7.9 11.3 77 2.1 S 41 52 22 28 - - 0.0
16/03:30pm 15.7 8.5 11.9 78 2.1 S 41 50 22 27 - - 0.0
16/03:00pm 15.8 8.6 12.0 78 2.1 S 41 50 22 27 - - 0.0
16/02:30pm 16.0 8.5 12.2 78 2.1 S 43 50 23 27 - - 0.0
16/02:00pm 16.2 7.9 12.6 79 2.0 S 48 61 26 33 - - 0.0
16/01:30pm 17.0 8.5 13.3 79 2.1 SSW 50 67 27 36 - - 0.0
16/01:00pm 18.0 9.3 13.7 76 2.4 SSW 52 69 28 37 - - 0.0
16/12:50pm 18.5 15.1 11.3 63 3.9 E 20 67 11 36 - - 0.0
16/12:48pm 19.8 18.3 10.5 55 5.0 ENE 9 50 5 27 - - 0.0
16/12:30pm 21.1 19.9 9.4 47 6.2 NE 6 9 3 5 - - 0.0
16/12:00pm 20.6 18.3 7.6 43 6.7 E 9 15 5 8 - - 0.0
16/11:30am 21.5 19.4 6.6 38 7.6 E 7 9 4 5 - - 0.0
16/11:00am 21.7 19.1 4.3 32 8.5 NE 7 11 4 6 - - 0.0
16/10:30am 21.7 19.8 2.9 29 8.9 SE 2 7 1 4 - - 0.0
16/10:00am 20.3 16.4 3.5 33 8.0 NNE 13 17 7 9 - - 0.0
16/09:30am 19.4 15.3 6.2 42 6.6 NE 17 22 9 12 - - 0.0
16/09:00am 19.6 15.6 6.7 43 6.5 NE 17 26 9 14 - - 0.0
16/08:30am 19.6 15.6 6.7 43 6.5 NE 17 22 9 12 - - 0.0
16/08:00am 20.6 17.8 2.0 29 8.6 NNW 6 11 3 6 - - 0.0
16/07:30am 20.5 15.7 2.8 31 8.3 NE 17 26 9 14 - - 0.0
16/07:00am 20.9 15.5 -1.0 23 9.6 NE 17 22 9 12 - - 0.0
16/06:30am 20.4 16.1 0.8 27 8.8 NNE 13 19 7 10 - - 0.0
16/06:00am 20.2 17.0 -0.4 25 9.0 NW 6 9 3 5 - - 0.0

Latest Capital City Observations: Canberra | Sydney | Melbourne | Brisbane | Adelaide | Perth | Hobart | Darwin

Other formats

Comma delimited format used in spreadsheet applications
http://www.bom.gov.au/fwo/IDN60901/IDN60901.94749.axf

JavaScript Object Notation format (JSON) in row-major order
http://www.bom.gov.au/fwo/IDN60901/IDN60901.94749.json

Data quality

Most of these data are generated automatically and are frequently updated. Quality checks on data are not normally performed. It is possible for incorrect values to appear. Refer to information at About Latest Weather Observations and please check the disclaimer before using these data.